createdAt,value
2018-07-29T00:00:22.560Z,3.93
2018-07-29T00:02:50.627Z,3.53
2018-07-29T00:05:18.468Z,3.47
2018-07-29T00:07:46.344Z,3.60
2018-07-29T00:10:14.145Z,4.23
2018-07-29T00:12:42.292Z,3.67
2018-07-29T00:15:10.585Z,3.67
2018-07-29T00:17:38.972Z,3.50
2018-07-29T00:20:08.173Z,3.50
2018-07-29T00:22:36.234Z,3.73
2018-07-29T00:25:05.328Z,4.10
2018-07-29T00:27:33.435Z,4.07
2018-07-29T00:30:01.619Z,4.40
2018-07-29T00:32:29.964Z,4.63
2018-07-29T00:34:58.352Z,3.80
2018-07-29T00:37:26.205Z,3.67
2018-07-29T00:39:54.256Z,3.93
2018-07-29T00:42:22.412Z,4.03
2018-07-29T00:44:52.273Z,4.40
2018-07-29T00:47:20.751Z,4.23
2018-07-29T00:49:48.679Z,4.17
2018-07-29T00:52:17.426Z,3.80
2018-07-29T00:54:45.690Z,3.93
2018-07-29T00:57:13.832Z,4.03
2018-07-29T00:59:41.756Z,4.00
2018-07-29T01:02:10.118Z,3.67
2018-07-29T01:04:38.355Z,4.07
2018-07-29T01:07:06.284Z,4.30
2018-07-29T01:09:34.535Z,3.80
2018-07-29T01:12:02.592Z,4.20
2018-07-29T01:14:30.777Z,4.77
2018-07-29T01:16:58.759Z,4.27
2018-07-29T01:19:26.606Z,4.43
2018-07-29T01:21:54.455Z,4.73
2018-07-29T01:24:22.584Z,4.20
2018-07-29T01:26:50.379Z,3.53
2018-07-29T01:29:18.318Z,3.93
2018-07-29T01:31:46.420Z,3.90
2018-07-29T01:34:14.381Z,3.97
2018-07-29T01:36:42.532Z,4.30
2018-07-29T01:39:10.517Z,4.33
2018-07-29T01:41:38.692Z,3.83
2018-07-29T01:44:06.607Z,3.70
2018-07-29T01:46:35.201Z,4.20
2018-07-29T01:49:03.036Z,3.80
2018-07-29T01:51:30.981Z,3.70
2018-07-29T01:53:59.206Z,4.40
2018-07-29T01:56:27.370Z,4.20
2018-07-29T01:58:55.293Z,4.40
2018-07-29T02:01:23.468Z,3.73
2018-07-29T02:03:51.455Z,3.97
2018-07-29T02:06:19.625Z,4.03
2018-07-29T02:08:47.544Z,3.70
2018-07-29T02:11:15.460Z,3.97
2018-07-29T02:13:43.555Z,4.50
2018-07-29T02:16:12.109Z,4.17
2018-07-29T02:18:40.197Z,3.70
2018-07-29T02:21:08.172Z,3.83
2018-07-29T02:23:36.523Z,3.60
2018-07-29T02:26:04.508Z,4.33
2018-07-29T02:28:32.426Z,4.50
2018-07-29T02:31:00.530Z,4.70
2018-07-29T02:33:30.922Z,5.20
2018-07-29T02:35:59.109Z,4.70
2018-07-29T02:38:27.293Z,3.83
2018-07-29T02:40:55.363Z,4.40
2018-07-29T02:43:23.351Z,4.27
2018-07-29T02:45:51.637Z,5.07
2018-07-29T02:48:19.722Z,4.90
2018-07-29T02:50:48.197Z,4.20
2018-07-29T02:53:16.232Z,4.77
2018-07-29T02:55:44.388Z,4.67
2018-07-29T02:58:12.597Z,4.53
2018-07-29T03:00:40.551Z,4.83
2018-07-29T03:03:08.902Z,5.17
2018-07-29T03:05:36.868Z,4.90
2018-07-29T03:08:05.780Z,5.40
2018-07-29T03:10:33.889Z,4.97
2018-07-29T03:13:02.014Z,4.97
2018-07-29T03:15:30.253Z,5.17
2018-07-29T03:17:58.476Z,5.00
2018-07-29T03:20:26.495Z,5.10
2018-07-29T03:22:54.501Z,5.07
2018-07-29T03:25:22.707Z,4.50
2018-07-29T03:27:50.920Z,5.00
2018-07-29T03:30:19.034Z,5.00
2018-07-29T03:32:47.296Z,4.97
2018-07-29T03:35:15.164Z,5.20
2018-07-29T03:37:43.029Z,4.93
2018-07-29T03:40:11.272Z,5.30
2018-07-29T03:42:39.382Z,5.13
2018-07-29T03:45:07.281Z,4.53
2018-07-29T03:47:35.430Z,4.93
2018-07-29T03:50:03.600Z,4.80
2018-07-29T03:52:31.546Z,4.80
2018-07-29T03:54:59.542Z,5.00
2018-07-29T03:57:27.675Z,4.83
2018-07-29T03:59:55.483Z,5.13
2018-07-29T04:02:23.484Z,5.17
2018-07-29T04:04:51.682Z,4.93
2018-07-29T04:07:19.874Z,5.10
2018-07-29T04:09:48.207Z,4.53
2018-07-29T04:12:16.133Z,5.10
2018-07-29T04:14:44.029Z,4.10
2018-07-29T04:17:12.273Z,4.80
2018-07-29T04:19:40.303Z,5.20
2018-07-29T04:22:08.194Z,5.70
2018-07-29T04:24:36.186Z,5.10
2018-07-29T04:27:04.037Z,5.37
2018-07-29T04:29:32.171Z,5.57
2018-07-29T04:32:00.193Z,5.40
2018-07-29T04:34:28.288Z,5.67
2018-07-29T04:36:56.517Z,6.63
2018-07-29T04:39:24.593Z,6.83
2018-07-29T04:41:52.624Z,6.53
2018-07-29T04:44:20.831Z,7.63
2018-07-29T04:46:48.872Z,7.27
2018-07-29T04:49:16.789Z,8.10
2018-07-29T04:51:44.886Z,15.47
2018-07-29T04:54:12.986Z,20.10
2018-07-29T04:56:41.074Z,16.77
2018-07-29T04:59:09.364Z,18.80
2018-07-29T05:01:37.422Z,18.60
2018-07-29T05:04:05.714Z,19.10
2018-07-29T05:06:34.318Z,19.33
2018-07-29T05:09:02.374Z,18.60
2018-07-29T05:11:30.233Z,17.87
2018-07-29T05:14:12.953Z,17.47
2018-07-29T05:16:41.141Z,15.90
2018-07-29T05:19:09.112Z,14.60
2018-07-29T05:21:37.200Z,16.67
2018-07-29T05:24:05.357Z,16.43
2018-07-29T05:26:34.255Z,17.10
2018-07-29T05:29:02.131Z,15.00
2018-07-29T05:31:30.290Z,14.33
2018-07-29T05:33:58.118Z,13.67
2018-07-29T05:36:27.080Z,15.10
2018-07-29T05:38:55.346Z,14.33
2018-07-29T05:41:23.583Z,15.10
2018-07-29T05:43:51.777Z,14.40
2018-07-29T05:46:19.814Z,15.40
2018-07-29T05:48:47.968Z,14.23
2018-07-29T05:51:17.252Z,12.53
2018-07-29T05:53:45.511Z,13.03
2018-07-29T05:56:13.602Z,14.17
2018-07-29T05:58:41.600Z,14.17
2018-07-29T06:01:09.912Z,13.00
2018-07-29T06:03:38.358Z,11.20
2018-07-29T06:06:06.703Z,12.20
2018-07-29T06:08:34.908Z,12.90
2018-07-29T06:11:02.756Z,11.57
2018-07-29T06:13:30.685Z,10.80
2018-07-29T06:15:59.953Z,10.03
2018-07-29T06:18:29.293Z,11.53
2018-07-29T06:20:57.607Z,11.70
2018-07-29T06:23:26.077Z,11.00
2018-07-29T06:25:54.306Z,10.70
2018-07-29T06:28:22.436Z,11.17
2018-07-29T06:30:50.355Z,10.73
2018-07-29T06:33:18.530Z,9.27
2018-07-29T06:35:46.732Z,9.90
2018-07-29T06:38:15.677Z,10.80
2018-07-29T06:40:44.067Z,10.67
2018-07-29T06:43:12.920Z,9.17
2018-07-29T06:45:41.337Z,9.20
2018-07-29T06:48:09.849Z,9.73
2018-07-29T06:50:38.350Z,8.40
2018-07-29T06:53:06.843Z,8.60
2018-07-29T06:55:36.643Z,8.53
2018-07-29T06:58:04.779Z,8.27
2018-07-29T07:00:32.930Z,7.30
2018-07-29T07:03:01.246Z,8.47
2018-07-29T07:05:30.290Z,8.07
2018-07-29T07:07:58.864Z,7.80
2018-07-29T07:10:26.943Z,7.13
2018-07-29T07:12:54.973Z,7.60
2018-07-29T07:15:22.941Z,7.23
2018-07-29T07:17:51.068Z,7.90
2018-07-29T07:20:19.195Z,7.93
2018-07-29T07:22:47.363Z,7.30
2018-07-29T07:25:15.631Z,8.00
2018-07-29T07:27:43.780Z,7.47
2018-07-29T07:30:11.643Z,7.57
2018-07-29T07:32:40.046Z,7.33
2018-07-29T07:35:08.827Z,7.10
2018-07-29T07:37:37.114Z,7.03
2018-07-29T07:40:06.146Z,6.10
2018-07-29T07:42:34.162Z,6.47
2018-07-29T07:45:02.407Z,6.83
2018-07-29T07:47:30.620Z,7.10
2018-07-29T07:49:59.007Z,7.20
2018-07-29T07:52:26.972Z,6.73
2018-07-29T07:54:55.507Z,6.73
2018-07-29T07:57:23.970Z,6.60
2018-07-29T07:59:52.681Z,6.73
2018-07-29T08:02:20.585Z,7.27
2018-07-29T08:04:49.312Z,6.87
2018-07-29T08:07:17.353Z,6.83
2018-07-29T08:09:48.267Z,7.40
2018-07-29T08:12:16.909Z,7.20
2018-07-29T08:14:45.037Z,6.63
2018-07-29T08:17:13.687Z,7.03
2018-07-29T08:19:41.948Z,6.90
2018-07-29T08:22:10.405Z,6.47
2018-07-29T08:24:38.182Z,6.43
2018-07-29T08:27:06.361Z,6.80
2018-07-29T08:29:34.340Z,7.03
2018-07-29T08:32:02.755Z,6.80
2018-07-29T08:34:30.954Z,7.27
2018-07-29T08:36:59.241Z,5.93
2018-07-29T08:39:27.410Z,6.80
2018-07-29T08:41:55.935Z,7.30
2018-07-29T08:44:25.042Z,6.90
2018-07-29T08:46:53.249Z,6.40
2018-07-29T08:49:21.693Z,7.33
2018-07-29T08:51:49.990Z,6.27
2018-07-29T08:54:19.550Z,7.57
2018-07-29T08:56:48.479Z,7.13
2018-07-29T08:59:17.728Z,6.83
2018-07-29T09:01:48.974Z,6.90
2018-07-29T09:04:17.895Z,6.87
2018-07-29T09:06:46.106Z,6.73
2018-07-29T09:09:14.569Z,6.80
2018-07-29T09:11:43.290Z,7.03
2018-07-29T09:14:13.733Z,7.30
2018-07-29T09:16:42.535Z,6.70
2018-07-29T09:19:11.220Z,7.00
2018-07-29T09:21:39.106Z,7.07
2018-07-29T09:24:07.602Z,7.10
2018-07-29T09:26:36.608Z,7.53
2018-07-29T09:29:04.549Z,7.20
2018-07-29T09:31:32.758Z,7.10
2018-07-29T09:34:00.609Z,7.67
2018-07-29T09:36:28.701Z,7.40
2018-07-29T09:38:57.195Z,7.00
2018-07-29T09:41:25.794Z,7.70
2018-07-29T09:43:53.633Z,7.70
2018-07-29T09:46:21.679Z,8.27
2018-07-29T09:48:49.761Z,7.53
2018-07-29T09:51:18.049Z,7.83
2018-07-29T09:53:45.973Z,7.93
2018-07-29T09:56:14.224Z,7.30
2018-07-29T09:58:42.268Z,7.80
2018-07-29T10:01:11.446Z,8.07
2018-07-29T10:03:41.806Z,8.10
2018-07-29T10:06:10.171Z,7.50
2018-07-29T10:08:38.180Z,8.60
2018-07-29T10:11:06.437Z,7.77
2018-07-29T10:13:34.926Z,8.10
2018-07-29T10:16:03.608Z,7.43
2018-07-29T10:18:31.596Z,8.10
2018-07-29T10:20:59.399Z,8.43
2018-07-29T10:23:27.632Z,8.30
2018-07-29T10:25:56.255Z,8.03
2018-07-29T10:28:24.774Z,9.10
2018-07-29T10:30:52.790Z,9.50
2018-07-29T10:33:20.804Z,8.67
2018-07-29T10:35:48.933Z,8.53
2018-07-29T10:38:16.902Z,9.37
2018-07-29T10:40:45.680Z,8.20
2018-07-29T10:43:13.708Z,7.77
2018-07-29T10:45:41.930Z,7.60
2018-07-29T10:48:10.104Z,7.40
2018-07-29T10:50:46.163Z,7.40
2018-07-29T10:53:14.736Z,7.20
2018-07-29T10:55:42.728Z,7.23
2018-07-29T10:58:10.883Z,6.93
2018-07-29T11:00:40.259Z,5.80
2018-07-29T11:03:10.268Z,6.33
2018-07-29T11:05:38.666Z,6.60
2018-07-29T11:08:07.578Z,6.83
2018-07-29T11:10:35.906Z,6.13
2018-07-29T11:13:04.034Z,6.20
2018-07-29T11:15:32.703Z,5.57
2018-07-29T11:18:01.632Z,5.80
2018-07-29T11:20:30.534Z,5.40
2018-07-29T11:22:58.921Z,6.00
2018-07-29T11:25:27.368Z,5.77
2018-07-29T11:27:55.417Z,5.73
2018-07-29T11:30:23.460Z,4.50
2018-07-29T11:32:51.990Z,5.00
2018-07-29T11:35:20.662Z,4.50
2018-07-29T11:37:49.044Z,3.30
2018-07-29T11:40:17.551Z,2.83
2018-07-29T11:42:46.048Z,3.47
2018-07-29T11:45:14.486Z,3.80
2018-07-29T11:47:42.860Z,2.93
2018-07-29T11:50:11.139Z,3.40
2018-07-29T11:52:39.561Z,2.90
2018-07-29T11:55:08.597Z,3.30
2018-07-29T11:57:36.821Z,2.90
2018-07-29T12:00:05.437Z,3.20
2018-07-29T12:02:33.798Z,3.70
2018-07-29T12:05:02.212Z,3.27
2018-07-29T12:07:30.043Z,3.80
2018-07-29T12:09:58.037Z,3.73
2018-07-29T12:12:26.487Z,4.93
2018-07-29T12:14:54.986Z,3.97
2018-07-29T12:17:23.714Z,3.93
2018-07-29T12:19:51.868Z,3.43
2018-07-29T12:22:19.679Z,3.20
2018-07-29T12:24:48.249Z,3.33
2018-07-29T12:27:16.145Z,3.83
2018-07-29T12:29:44.787Z,3.30
2018-07-29T12:32:12.933Z,3.63
2018-07-29T12:34:40.999Z,3.40
2018-07-29T12:37:09.047Z,3.60
2018-07-29T12:39:37.256Z,3.30
2018-07-29T12:42:05.435Z,3.23
2018-07-29T12:44:33.520Z,3.23
2018-07-29T12:47:01.576Z,4.27
2018-07-29T12:49:29.901Z,3.20
2018-07-29T12:51:57.777Z,3.67
2018-07-29T12:54:26.270Z,3.57
2018-07-29T12:56:54.400Z,3.57
2018-07-29T12:59:22.501Z,3.90
2018-07-29T13:01:50.454Z,3.23
2018-07-29T13:04:19.408Z,3.07
2018-07-29T13:06:47.779Z,3.10
2018-07-29T13:09:15.707Z,3.40
2018-07-29T13:11:43.762Z,3.60
2018-07-29T13:14:11.843Z,3.57
2018-07-29T13:16:40.573Z,4.23
2018-07-29T13:19:08.804Z,3.63
2018-07-29T13:21:37.727Z,3.43
2018-07-29T13:24:05.717Z,3.30
2018-07-29T13:26:35.843Z,4.23
2018-07-29T13:29:04.565Z,3.87
2018-07-29T13:31:32.773Z,4.07
2018-07-29T13:34:01.315Z,3.93
2018-07-29T13:36:29.428Z,3.30
2018-07-29T13:38:57.445Z,4.10
2018-07-29T13:41:25.741Z,3.60
2018-07-29T13:43:54.048Z,4.00
2018-07-29T13:46:22.020Z,3.60
2018-07-29T13:48:50.314Z,3.70
2018-07-29T13:51:18.597Z,3.97
2018-07-29T13:53:46.570Z,3.87
2018-07-29T13:56:14.406Z,4.30
2018-07-29T13:58:42.607Z,3.60
2018-07-29T14:01:10.777Z,3.40
2018-07-29T14:03:38.661Z,4.60
2018-07-29T14:06:07.144Z,3.33
2018-07-29T14:08:34.985Z,3.90
2018-07-29T14:11:03.159Z,4.00
2018-07-29T14:13:31.500Z,3.30
2018-07-29T14:16:01.873Z,4.10
2018-07-29T14:18:30.454Z,4.30
2018-07-29T14:20:58.741Z,3.93
2018-07-29T14:23:27.419Z,3.93
2018-07-29T14:25:55.578Z,4.60
2018-07-29T14:28:23.491Z,3.50
2018-07-29T14:30:51.698Z,3.67
2018-07-29T14:33:19.690Z,4.00
2018-07-29T14:35:47.578Z,3.47
2018-07-29T14:38:15.956Z,3.70
2018-07-29T14:40:44.336Z,3.77
2018-07-29T14:43:12.718Z,3.73
2018-07-29T14:45:40.584Z,3.70
2018-07-29T14:48:08.859Z,3.60
2018-07-29T14:50:36.897Z,3.50
2018-07-29T14:53:05.083Z,3.60
2018-07-29T14:55:33.379Z,3.93
2018-07-29T14:58:01.315Z,3.73
2018-07-29T15:00:29.610Z,3.67
2018-07-29T15:02:58.608Z,3.13
2018-07-29T15:05:26.957Z,3.50
2018-07-29T15:07:55.407Z,3.33
2018-07-29T15:10:30.038Z,3.63
2018-07-29T15:12:59.136Z,3.50
2018-07-29T15:15:27.500Z,3.30
2018-07-29T15:17:55.572Z,3.63
2018-07-29T15:20:24.212Z,3.27
2018-07-29T15:22:54.102Z,3.20
2018-07-29T15:25:22.469Z,3.33
2018-07-29T15:27:51.746Z,2.87
2018-07-29T15:30:20.607Z,3.63
2018-07-29T15:32:48.873Z,3.60
2018-07-29T15:35:16.925Z,3.60
2018-07-29T15:37:45.316Z,3.13
2018-07-29T15:40:13.633Z,3.77
2018-07-29T15:42:42.111Z,4.00
2018-07-29T15:45:10.119Z,3.90
2018-07-29T15:47:38.128Z,3.37
2018-07-29T15:50:06.555Z,3.90
2018-07-29T15:52:34.855Z,3.87
2018-07-29T15:55:03.590Z,3.90
2018-07-29T15:57:32.500Z,3.60
2018-07-29T16:00:01.635Z,3.60
2018-07-29T16:02:29.708Z,3.63
2018-07-29T16:04:58.735Z,3.67
2018-07-29T16:07:27.013Z,3.93
2018-07-29T16:09:56.183Z,3.60
2018-07-29T16:12:24.597Z,4.07
2018-07-29T16:14:52.883Z,3.70
2018-07-29T16:17:21.359Z,3.60
2018-07-29T16:19:50.127Z,3.20
2018-07-29T16:22:17.998Z,3.40
2018-07-29T16:24:46.239Z,3.90
2018-07-29T16:27:14.294Z,4.03
2018-07-29T16:29:42.426Z,3.70
2018-07-29T16:32:10.445Z,4.03
2018-07-29T16:34:38.881Z,3.43
2018-07-29T16:37:07.843Z,4.07
2018-07-29T16:39:35.957Z,3.80
2018-07-29T16:42:04.195Z,4.27
2018-07-29T16:44:32.737Z,4.20
2018-07-29T16:47:00.943Z,3.60
2018-07-29T16:49:29.276Z,3.60
2018-07-29T16:51:57.882Z,3.60
2018-07-29T16:54:26.599Z,4.13
2018-07-29T16:56:55.154Z,4.37
2018-07-29T16:59:23.901Z,3.80
2018-07-29T17:01:53.183Z,3.50
2018-07-29T17:04:21.528Z,4.23
2018-07-29T17:06:50.806Z,3.80
2018-07-29T17:09:18.808Z,4.00
2018-07-29T17:11:46.929Z,4.00
2018-07-29T17:14:14.966Z,3.90
2018-07-29T17:16:43.484Z,4.20
2018-07-29T17:19:11.593Z,3.70
2018-07-29T17:21:39.949Z,4.37
2018-07-29T17:24:07.915Z,4.30
2018-07-29T17:26:36.989Z,3.90
2018-07-29T17:29:06.355Z,4.77
2018-07-29T17:31:36.245Z,4.40
2018-07-29T17:34:04.349Z,3.90
2018-07-29T17:36:32.564Z,4.00
2018-07-29T17:39:00.904Z,3.80
2018-07-29T17:41:29.333Z,4.13
2018-07-29T17:43:57.732Z,3.73
2018-07-29T17:46:26.203Z,3.87
2018-07-29T17:48:55.493Z,3.83
2018-07-29T17:51:25.051Z,4.20
2018-07-29T17:53:53.720Z,4.53
2018-07-29T17:56:22.520Z,3.90
2018-07-29T17:58:51.058Z,4.13
2018-07-29T18:01:19.653Z,3.40
2018-07-29T18:03:47.928Z,4.13
2018-07-29T18:06:17.493Z,3.90
2018-07-29T18:08:46.194Z,4.27
2018-07-29T18:11:14.655Z,3.43
2018-07-29T18:13:43.115Z,4.03
2018-07-29T18:16:13.584Z,3.33
2018-07-29T18:18:43.720Z,3.73
2018-07-29T18:21:12.256Z,4.30
2018-07-29T18:23:40.766Z,3.93
2018-07-29T18:26:10.366Z,3.50
2018-07-29T18:28:38.449Z,4.10
2018-07-29T18:31:07.985Z,3.73
2018-07-29T18:33:36.167Z,4.47
2018-07-29T18:36:04.569Z,3.53
2018-07-29T18:38:32.991Z,4.50
2018-07-29T18:41:01.291Z,4.43
2018-07-29T18:43:31.014Z,4.60
2018-07-29T18:46:00.688Z,4.90
2018-07-29T18:48:29.829Z,4.30
2018-07-29T18:50:58.694Z,4.10
2018-07-29T18:53:28.140Z,4.47
2018-07-29T18:55:57.084Z,4.07
2018-07-29T18:58:25.615Z,4.33
2018-07-29T19:00:54.641Z,4.33
2018-07-29T19:03:23.482Z,4.03
2018-07-29T19:05:52.123Z,4.00
2018-07-29T19:08:21.194Z,4.40
2018-07-29T19:10:49.956Z,4.57
2018-07-29T19:13:18.479Z,4.30
2018-07-29T19:15:47.940Z,4.13
2018-07-29T19:18:16.002Z,5.00
2018-07-29T19:20:50.621Z,4.40
2018-07-29T19:23:18.972Z,4.67
2018-07-29T19:25:47.434Z,4.63
2018-07-29T19:28:16.621Z,4.30
2018-07-29T19:30:45.102Z,4.77
2018-07-29T19:33:13.359Z,4.43
2018-07-29T19:35:42.393Z,4.20
2018-07-29T19:38:13.278Z,4.73
2018-07-29T19:40:41.475Z,4.40
2018-07-29T19:43:09.557Z,4.53
2018-07-29T19:45:38.405Z,4.57
2018-07-29T19:48:08.813Z,5.17
2018-07-29T19:50:37.143Z,4.60
2018-07-29T19:53:05.261Z,4.57
2018-07-29T19:55:34.130Z,4.50
2018-07-29T19:58:02.267Z,4.43
2018-07-29T20:00:30.719Z,4.27
2018-07-29T20:03:00.436Z,4.80
2018-07-29T20:05:30.642Z,5.13
2018-07-29T20:07:58.889Z,6.50
2018-07-29T20:10:27.313Z,5.30
2018-07-29T20:12:55.555Z,4.63
2018-07-29T20:15:25.102Z,4.70
2018-07-29T20:17:53.755Z,5.00
2018-07-29T20:20:22.441Z,4.90
2018-07-29T20:22:50.799Z,4.60
2018-07-29T20:25:18.941Z,5.33
2018-07-29T20:27:47.199Z,5.40
2018-07-29T20:30:15.299Z,5.13
2018-07-29T20:32:43.442Z,5.20
2018-07-29T20:35:12.570Z,4.70
2018-07-29T20:37:40.697Z,5.70
2018-07-29T20:40:09.091Z,4.93
2018-07-29T20:42:37.076Z,4.60
2018-07-29T20:45:07.146Z,5.03
2018-07-29T20:47:35.393Z,5.90
2018-07-29T20:50:03.561Z,5.13
2018-07-29T20:52:32.445Z,5.43
2018-07-29T20:55:01.601Z,5.13
2018-07-29T20:57:29.546Z,4.90
2018-07-29T20:59:58.404Z,4.97
2018-07-29T21:02:26.713Z,5.27
2018-07-29T21:04:55.742Z,4.93
2018-07-29T21:07:26.279Z,4.83
2018-07-29T21:09:54.566Z,4.57
2018-07-29T21:12:22.811Z,4.93
2018-07-29T21:14:51.029Z,4.50
2018-07-29T21:17:19.230Z,5.13
2018-07-29T21:19:47.962Z,5.10
2018-07-29T21:22:15.957Z,4.30
2018-07-29T21:24:44.602Z,6.00
2018-07-29T21:27:13.263Z,4.93
2018-07-29T21:29:41.451Z,5.20
2018-07-29T21:32:09.552Z,4.97
2018-07-29T21:34:37.763Z,5.43
2018-07-29T21:37:06.076Z,4.93
2018-07-29T21:39:34.684Z,5.43
2018-07-29T21:42:02.614Z,5.10
2018-07-29T21:44:30.593Z,4.93
2018-07-29T21:46:58.915Z,4.60
2018-07-29T21:49:28.118Z,5.70
2018-07-29T21:51:56.299Z,5.20
2018-07-29T21:54:25.335Z,4.43
2018-07-29T21:56:53.752Z,5.37
2018-07-29T21:59:22.152Z,5.40
2018-07-29T22:01:50.377Z,4.83
2018-07-29T22:04:18.743Z,4.70
2018-07-29T22:06:47.618Z,5.10
2018-07-29T22:09:16.124Z,5.40
2018-07-29T22:11:44.424Z,5.00
2018-07-29T22:14:13.163Z,5.47
2018-07-29T22:16:41.888Z,5.87
2018-07-29T22:19:10.473Z,4.67
2018-07-29T22:21:39.480Z,5.03
2018-07-29T22:24:07.665Z,4.93
2018-07-29T22:26:41.820Z,5.43
2018-07-29T22:29:15.323Z,5.23
2018-07-29T22:31:48.729Z,5.10
2018-07-29T22:34:17.171Z,5.23
2018-07-29T22:36:45.444Z,6.20
2018-07-29T22:39:13.433Z,5.90
2018-07-29T22:41:41.660Z,5.00
2018-07-29T22:44:10.197Z,5.63
2018-07-29T22:46:38.623Z,5.17
2018-07-29T22:49:06.798Z,5.63
2018-07-29T22:51:35.756Z,4.90
2018-07-29T22:54:04.534Z,5.30
2018-07-29T22:56:32.682Z,5.83
2018-07-29T22:59:00.828Z,4.90
2018-07-29T23:01:29.009Z,5.10
2018-07-29T23:03:57.013Z,6.00
2018-07-29T23:06:25.753Z,5.13
2018-07-29T23:08:53.663Z,5.97
2018-07-29T23:11:22.007Z,5.40
2018-07-29T23:13:50.037Z,4.90
2018-07-29T23:16:18.545Z,5.10
2018-07-29T23:18:46.577Z,4.80
2018-07-29T23:21:14.808Z,4.90
2018-07-29T23:23:42.910Z,5.77
2018-07-29T23:26:10.995Z,5.30
2018-07-29T23:28:39.217Z,5.93
2018-07-29T23:31:07.588Z,4.90
2018-07-29T23:33:35.808Z,6.00
2018-07-29T23:36:03.871Z,5.83
2018-07-29T23:38:31.991Z,5.30
2018-07-29T23:41:00.346Z,5.60
2018-07-29T23:43:28.493Z,5.10
2018-07-29T23:45:56.316Z,5.20
2018-07-29T23:48:24.563Z,5.20
2018-07-29T23:50:52.511Z,5.47
2018-07-29T23:53:20.815Z,5.20
2018-07-29T23:55:48.954Z,5.30
2018-07-29T23:58:16.867Z,5.10
